Time;durP1;ratioP1;P1;durP2;ratioP2;P2;SDS_P1;SDS_P2;PMS_P1;PMS_P2;Temp;Humidity;BMP_temperature;BMP_pressure;BME280_temperature;BME280_humidity;BME280_pressure;Samples;Min_cycle;Max_cycle;Signal;HPM_P1;HPM_P2
2023/06/06 00:01:05;;;;;;;4.90;2.55;;;;;;;;;;6193301;23;20015;-88
2023/06/06 00:03:31;;;;;;;4.65;2.58;;;;;;;;;;6192846;23;20076;-88
2023/06/06 00:05:59;;;;;;;5.10;2.70;;;18.10;71.00;;;;;;6192264;23;20005;-87
2023/06/06 00:08:28;;;;;;;6.65;2.92;;;18.00;71.80;;;;;;6185223;23;20491;-87
2023/06/06 00:10:54;;;;;;;5.75;2.50;;;;;;;;;;6190646;23;20032;-86
2023/06/06 00:13:20;;;;;;;4.97;2.58;;;17.90;71.70;;;;;;6190988;23;20051;-86
2023/06/06 00:15:46;;;;;;;4.40;2.55;;;;;;;;;;6192099;23;20004;-85
2023/06/06 00:18:12;;;;;;;5.78;2.60;;;;;;;;;;6190614;23;19993;-88
2023/06/06 00:20:39;;;;;;;4.88;2.55;;;;;;;;;;6190019;23;20376;-88
2023/06/06 00:23:06;;;;;;;5.38;2.70;;;17.70;72.90;;;;;;6189052;23;20535;-86
2023/06/06 00:25:32;;;;;;;7.65;3.08;;;;;;;;;;6188828;23;20016;-87
2023/06/06 00:27:58;;;;;;;5.13;3.10;;;;;;;;;;6186457;23;20099;-88
2023/06/06 00:30:24;;;;;;;7.50;3.15;;;;;;;;;;6187951;23;20005;-85
2023/06/06 00:32:50;;;;;;;4.80;2.85;;;;;;;;;;6189698;23;20471;-88
2023/06/06 00:35:16;;;;;;;6.13;2.80;;;;;;;;;;6191124;23;20005;-86
2023/06/06 00:37:42;;;;;;;5.38;3.10;;;;;;;;;;6189955;23;20012;-88
2023/06/06 00:40:09;;;;;;;6.55;3.20;;;;;;;;;;6189236;23;20352;-88
2023/06/06 00:42:35;;;;;;;4.72;2.92;;;;;;;;;;6190156;23;20040;-87
2023/06/06 00:45:01;;;;;;;4.68;2.90;;;;;;;;;;6166221;23;20012;-86
2023/06/06 00:47:27;;;;;;;7.05;2.95;;;20.00;76.30;;;;;;6190971;23;19997;-86
2023/06/06 00:49:54;;;;;;;6.20;2.95;;;;;;;;;;6192318;23;20147;-83
2023/06/06 00:52:20;;;;;;;6.95;2.78;;;17.40;75.00;;;;;;6192560;23;20012;-85
2023/06/06 00:54:48;;;;;;;5.63;2.80;;;17.50;75.40;;;;;;6191299;23;19998;-86
2023/06/06 00:57:16;;;;;;;5.13;2.50;;;;;;;;;;6194058;23;20396;-83
2023/06/06 00:59:42;;;;;;;4.00;2.50;;;;;;;;;;6225886;23;20009;-82
2023/06/06 01:02:10;;;;;;;4.75;2.30;;;17.30;75.30;;;;;;6222808;23;20008;-87
2023/06/06 01:04:43;;;;;;;4.57;2.90;;;17.30;75.30;;;;;;6198165;23;20008;-83
2023/06/06 01:07:17;;;;;;;7.57;2.67;;;18.90;76.70;;;;;;6172290;23;20342;-87
2023/06/06 01:09:44;;;;;;;5.50;2.90;;;17.20;75.60;;;;;;6197512;23;20028;-84
2023/06/06 01:12:35;;;;;;;4.10;2.47;;;17.50;76.60;;;;;;6193339;23;20059;-86
2023/06/06 01:15:09;;;;;;;;;;;17.10;76.30;;;;;;6219991;23;20016;-86
2023/06/06 01:17:36;;;;;;;7.38;3.35;;;17.10;76.70;;;;;;6167350;23;20638;-85
2023/06/06 01:20:04;;;;;;;6.05;2.90;;;17.00;76.60;;;;;;6190356;23;20004;-85
2023/06/06 01:22:32;;;;;;;5.57;2.65;;;17.00;77.10;;;;;;6191943;23;20064;-82
2023/06/06 01:24:58;;;;;;;5.85;2.70;;;17.10;77.30;;;;;;6219790;23;20008;-84
2023/06/06 01:27:23;;;;;;;4.18;2.75;;;16.90;76.80;;;;;;6191325;23;20044;-86
2023/06/06 01:29:49;;;;;;;6.18;2.92;;;;;;;;;;6220151;23;20001;-86
2023/06/06 01:32:40;;;;;;;6.85;2.92;;;16.90;77.10;;;;;;6193468;23;20008;-86
2023/06/06 01:35:28;;;;;;;4.88;2.60;;;16.90;77.50;;;;;;6194148;23;20052;-86
2023/06/06 01:38:04;;;;;;;6.70;2.63;;;16.90;77.60;;;;;;6193772;23;20051;-85
2023/06/06 01:40:31;;;;;;;5.22;2.65;;;16.70;77.80;;;;;;6219341;23;20583;-85
2023/06/06 01:42:57;;;;;;;7.55;2.95;;;16.70;77.70;;;;;;6193452;23;20001;-88
2023/06/06 01:45:26;;;;;;;4.90;2.78;;;16.70;78.20;;;;;;6220120;23;20060;-84
2023/06/06 01:47:52;;;;;;;4.40;2.67;;;;;;;;;;6219477;23;20009;-84
2023/06/06 01:50:18;;;;;;;7.10;2.90;;;16.70;78.20;;;;;;6219226;23;20009;-86
2023/06/06 01:52:44;;;;;;;4.68;2.70;;;19.60;80.50;;;;;;6219999;23;20385;-86
2023/06/06 01:55:10;;;;;;;5.97;2.70;;;17.90;79.50;;;;;;6193136;23;20005;-86
2023/06/06 01:57:36;;;;;;;5.22;2.83;;;16.70;78.60;;;;;;6193243;23;20039;-83
2023/06/06 02:00:04;;;;;;;6.25;2.85;;;;;;;;;;6216784;23;20001;-86
2023/06/06 02:02:31;;;;;;;8.10;3.10;;;16.80;78.40;;;;;;6192358;23;20021;-86
2023/06/06 02:04:56;;;;;;;6.65;3.65;;;;;;;;;;6219105;23;20007;-86
2023/06/06 02:07:24;;;;;;;6.45;2.90;;;;;;;;;;6191264;23;20005;-88
2023/06/06 02:09:50;;;;;;;4.97;3.03;;;16.80;78.60;;;;;;6220996;23;20004;-86
2023/06/06 02:12:16;;;;;;;4.57;2.80;;;16.80;79.00;;;;;;6167928;23;20035;-87
2023/06/06 02:14:42;;;;;;;6.10;2.55;;;17.00;79.30;;;;;;6220147;23;20008;-85
2023/06/06 02:17:08;;;;;;;5.22;2.75;;;;;;;;;;6193156;23;20028;-89
2023/06/06 02:19:33;;;;;;;5.82;3.05;;;16.70;78.80;;;;;;6220154;23;20008;-87
2023/06/06 02:21:59;;;;;;;7.07;2.65;;;16.60;79.10;;;;;;6192358;23;20040;-89
2023/06/06 02:24:25;;;;;;;5.63;2.90;;;16.50;79.40;;;;;;6194346;23;20019;-88
2023/06/06 02:26:54;;;;;;;5.57;2.92;;;16.50;79.70;;;;;;6195072;23;20028;-88
2023/06/06 02:29:24;;;;;;;5.50;2.70;;;16.40;79.80;;;;;;6193472;23;20000;-88
2023/06/06 02:31:50;;;;;;;5.07;2.90;;;16.40;80.20;;;;;;6193455;23;20016;-89
2023/06/06 02:34:16;;;;;;;5.55;2.78;;;16.50;80.20;;;;;;6220210;23;20219;-89
2023/06/06 02:36:43;;;;;;;4.95;2.55;;;;;;;;;;6214102;23;20016;-86
2023/06/06 02:39:09;;;;;;;4.28;2.55;;;16.30;80.50;;;;;;6194786;23;20448;-87
2023/06/06 02:41:35;;;;;;;6.30;2.72;;;;;;;;;;6220998;23;20008;-86
2023/06/06 02:44:01;;;;;;;6.47;2.50;;;16.20;80.90;;;;;;6223744;23;20028;-88
2023/06/06 02:46:27;;;;;;;6.85;2.70;;;16.10;81.10;;;;;;6221252;23;20004;-85
2023/06/06 02:48:53;;;;;;;3.70;2.28;;;16.20;81.30;;;;;;6191065;23;20072;-87
2023/06/06 02:51:23;;;;;;;4.95;2.80;;;16.20;81.30;;;;;;6189399;23;20066;-86
2023/06/06 02:53:49;;;;;;;4.15;2.75;;;16.10;80.80;;;;;;6220154;23;20014;-86
2023/06/06 02:56:16;;;;;;;6.32;2.80;;;16.10;80.70;;;;;;6193055;23;20024;-90
2023/06/06 02:58:43;;;;;;;4.57;2.35;;;;;;;;;;6219002;23;20358;-84
2023/06/06 03:01:12;;;;;;;7.22;2.50;;;16.10;81.10;;;;;;6191155;23;20458;-86
2023/06/06 03:03:38;;;;;;;7.20;2.47;;;16.10;80.90;;;;;;6218693;23;20004;-87
2023/06/06 03:06:06;;;;;;;4.28;2.35;;;16.00;81.10;;;;;;6193742;23;20076;-87
2023/06/06 03:08:32;;;;;;;5.63;3.13;;;16.10;80.30;;;;;;6220625;23;20026;-86
2023/06/06 03:10:58;;;;;;;6.25;2.40;;;16.70;81.00;;;;;;6193476;23;20027;-89
2023/06/06 03:13:24;;;;;;;6.60;2.45;;;16.20;80.40;;;;;;6193439;23;20005;-86
2023/06/06 03:15:50;;;;;;;3.70;2.50;;;;;;;;;;6192831;23;20000;-85
2023/06/06 03:18:23;;;;;;;5.20;3.10;;;;;;;;;;6219639;23;20456;-86
2023/06/06 03:20:53;;;;;;;7.18;3.25;;;16.20;80.40;;;;;;6219471;23;20001;-89
2023/06/06 03:23:19;;;;;;;6.55;2.80;;;;;;;;;;6219991;23;20091;-88
2023/06/06 03:25:49;;;;;;;4.43;2.65;;;16.10;81.00;;;;;;6192997;23;20011;-84
2023/06/06 03:28:17;;;;;;;4.88;2.63;;;16.10;81.00;;;;;;6171003;23;20013;-87
2023/06/06 03:30:45;;;;;;;7.45;3.33;;;16.10;81.10;;;;;;6194455;23;20008;-83
2023/06/06 03:33:11;;;;;;;5.28;3.17;;;;;;;;;;6221481;23;20455;-86
2023/06/06 03:35:38;;;;;;;5.15;3.00;;;;;;;;;;6221406;23;20019;-87
2023/06/06 03:38:03;;;;;;;5.63;2.97;;;16.00;81.60;;;;;;6195609;23;20083;-83
2023/06/06 03:40:29;;;;;;;8.07;2.60;;;16.00;81.90;;;;;;6221186;23;20004;-83
2023/06/06 03:42:55;;;;;;;7.07;2.63;;;15.90;81.90;;;;;;6195465;23;20012;-85
2023/06/06 03:45:21;;;;;;;5.07;2.50;;;16.20;82.30;;;;;;6196971;23;20004;-88
2023/06/06 03:47:47;;;;;;;4.93;2.45;;;;;;;;;;6222520;23;20032;-86
2023/06/06 03:50:14;;;;;;;4.30;2.40;;;;;;;;;;6193116;23;20001;-84
2023/06/06 03:52:40;;;;;;;5.45;2.72;;;;;;;;;;6220103;23;20044;-84
2023/06/06 03:55:07;;;;;;;6.25;2.75;;;;;;;;;;6221971;23;20000;-86
2023/06/06 03:57:33;;;;;;;3.78;2.67;;;16.10;81.00;;;;;;6190873;23;20012;-84
2023/06/06 04:00:00;;;;;;;6.60;2.58;;;;;;;;;;6184407;23;20001;-86
2023/06/06 04:02:27;;;;;;;5.97;2.50;;;;;;;;;;6190798;23;20005;-83
2023/06/06 04:04:54;;;;;;;4.00;2.55;;;;;;;;;;6191231;23;20008;-86
2023/06/06 04:07:20;;;;;;;4.95;2.47;;;;;;;;;;6188924;23;20001;-86
2023/06/06 04:09:46;;;;;;;6.10;2.65;;;;;;;;;;6190189;23;20020;-87
2023/06/06 04:12:12;;;;;;;4.45;2.47;;;;;;;;;;6187947;23;20005;-85
2023/06/06 04:14:38;;;;;;;5.47;2.97;;;;;;;;;;6190729;23;20020;-87
2023/06/06 04:17:04;;;;;;;7.28;2.90;;;16.30;81.50;;;;;;6165978;23;20103;-89
2023/06/06 04:19:30;;;;;;;10.80;3.15;;;;;;;;;;6188632;23;20029;-89
2023/06/06 04:21:57;;;;;;;4.22;2.70;;;;;;;;;;6189660;23;20020;-89
2023/06/06 04:24:23;;;;;;;4.32;2.72;;;;;;;;;;6190020;23;20020;-89
2023/06/06 04:26:49;;;;;;;5.05;2.95;;;;;;;;;;6191052;23;20005;-88
2023/06/06 04:29:15;;;;;;;10.00;3.15;;;;;;;;;;6190205;23;20009;-85
2023/06/06 04:31:40;;;;;;;6.00;2.63;;;16.50;82.00;;;;;;6187962;23;20081;-83
2023/06/06 04:34:09;;;;;;;7.95;3.72;;;16.50;82.70;;;;;;6189610;23;20009;-87
2023/06/06 04:36:38;;;;;;;7.85;3.40;;;16.60;82.50;;;;;;6188253;23;20171;-86
2023/06/06 04:39:07;;;;;;;20.23;4.50;;;16.50;82.50;;;;;;6187948;23;20005;-86
2023/06/06 04:41:34;;;;;;;7.25;3.53;;;;;;;;;;6187468;23;20069;-87
2023/06/06 04:44:03;;;;;;;7.93;3.75;;;16.80;83.00;;;;;;6185958;23;20004;-86
2023/06/06 04:46:29;;;;;;;6.40;2.80;;;;;;;;;;6186897;23;20345;-87
2023/06/06 04:48:56;;;;;;;5.15;2.60;;;16.80;82.80;;;;;;6187240;23;20012;-87
2023/06/06 04:51:33;;;;;;;5.35;3.13;;;16.90;83.30;;;;;;6194968;23;20028;-87
2023/06/06 04:54:00;;;;;;;6.22;2.67;;;16.90;83.50;;;;;;6194218;23;20004;-87
2023/06/06 04:56:29;;;;;;;7.10;2.95;;;16.80;83.40;;;;;;6203096;23;19997;-89
2023/06/06 04:59:06;;;;;;;7.85;3.17;;;16.90;83.80;;;;;;6227800;23;20026;-89
2023/06/06 05:01:41;;;;;;;7.28;3.28;;;17.00;83.80;;;;;;6234344;23;19985;-88
2023/06/06 05:04:07;;;;;;;7.05;2.97;;;17.00;83.60;;;;;;6213562;23;19993;-89
2023/06/06 05:06:34;;;;;;;4.82;2.70;;;;;;;;;;6214273;23;20004;-88
2023/06/06 05:09:03;;;;;;;5.82;3.15;;;17.30;83.90;;;;;;6214504;23;19992;-88
2023/06/06 05:11:29;;;;;;;4.67;2.80;;;;;;;;;;6213805;23;19999;-90
2023/06/06 05:13:55;;;;;;;6.22;2.85;;;;;;;;;;6212804;23;20005;-88
2023/06/06 05:16:21;;;;;;;4.32;2.67;;;17.50;83.50;;;;;;6236718;23;19993;-85
2023/06/06 05:18:47;;;;;;;6.38;2.83;;;;;;;;;;6218566;23;20028;-83
2023/06/06 05:21:14;;;;;;;4.00;2.67;;;17.70;83.70;;;;;;6219945;23;20016;-83
2023/06/06 05:23:40;;;;;;;4.78;2.97;;;;;;;;;;6195555;23;20015;-82
2023/06/06 05:26:06;;;;;;;6.32;3.42;;;;;;;;;;6226180;23;20040;-82
2023/06/06 05:28:32;;;;;;;7.22;2.70;;;;;;;;;;6223115;23;20020;-82
2023/06/06 05:30:59;;;;;;;4.78;2.47;;;;;;;;;;6217488;23;20000;-82
2023/06/06 05:33:26;;;;;;;4.25;2.65;;;;;;;;;;6187770;23;20083;-81
2023/06/06 05:35:55;;;;;;;4.50;3.00;;;;;;;;;;6214935;23;20122;-82
2023/06/06 05:38:21;;;;;;;6.55;2.97;;;;;;;;;;6188974;23;20104;-79
2023/06/06 05:40:47;;;;;;;6.00;2.70;;;;;;;;;;6184252;23;20001;-79
2023/06/06 05:43:14;;;;;;;4.88;2.63;;;21.70;73.60;;;;;;6214795;23;20367;-82
2023/06/06 05:45:40;;;;;;;8.32;3.15;;;21.70;74.20;;;;;;6215453;23;20004;-83
2023/06/06 05:48:06;;;;;;;11.60;3.30;;;;;;;;;;6189672;23;20344;-81
2023/06/06 05:50:32;;;;;;;12.95;3.58;;;21.90;73.30;;;;;;6214416;23;20001;-87
2023/06/06 05:52:58;;;;;;;8.88;3.47;;;;;;;;;;6188780;23;20096;-80
2023/06/06 05:55:34;;;;;;;4.30;2.80;;;21.80;73.70;;;;;;6190748;23;20063;-84
2023/06/06 05:58:06;;;;;;;39.90;7.13;;;21.70;74.40;;;;;;6185957;23;20035;-82
2023/06/06 06:00:33;;;;;;;11.35;3.80;;;21.40;75.10;;;;;;6185806;23;20060;-82
2023/06/06 06:03:00;;;;;;;9.35;3.30;;;21.20;76.00;;;;;;6185360;23;20008;-80
2023/06/06 06:05:31;;;;;;;5.65;2.95;;;20.80;76.70;;;;;;6184360;23;20043;-85
2023/06/06 06:08:02;;;;;;;4.45;2.83;;;20.60;77.80;;;;;;6185597;23;20438;-82
2023/06/06 06:10:29;;;;;;;4.72;3.35;;;20.50;78.50;;;;;;6184217;23;20005;-86
2023/06/06 06:12:55;;;;;;;4.85;3.00;;;;;;;;;;6190471;23;20008;-84
2023/06/06 06:15:21;;;;;;;4.93;2.72;;;;;;;;;;6187838;23;20776;-83
2023/06/06 06:17:48;;;;;;;4.68;2.97;;;;;;;;;;6187498;23;20091;-84
2023/06/06 06:20:15;;;;;;;5.82;2.95;;;20.20;80.30;;;;;;6182688;23;20001;-82
2023/06/06 06:22:42;;;;;;;4.38;3.20;;;;;;;;;;6181858;23;20001;-82
2023/06/06 06:25:12;;;;;;;7.25;3.58;;;20.10;80.90;;;;;;6181391;23;20056;-82
2023/06/06 06:27:42;;;;;;;5.32;2.97;;;19.90;81.30;;;;;;6184070;23;20005;-82
2023/06/06 06:30:09;;;;;;;7.18;3.25;;;20.00;81.50;;;;;;6183353;23;20371;-83
2023/06/06 06:32:36;;;;;;;6.32;3.20;;;19.80;82.10;;;;;;6184234;23;20076;-81
2023/06/06 06:35:05;;;;;;;4.05;2.88;;;19.80;82.50;;;;;;6183966;23;20009;-80
2023/06/06 06:37:31;;;;;;;4.97;3.00;;;;;;;;;;6183109;23;20005;-80
2023/06/06 06:39:58;;;;;;;8.43;3.33;;;19.90;82.70;;;;;;6188479;23;20003;-81
2023/06/06 06:42:24;;;;;;;6.95;3.00;;;;;;;;;;6191738;23;20064;-81
2023/06/06 06:44:51;;;;;;;5.10;3.00;;;;;;;;;;6187711;23;20020;-79
2023/06/06 06:47:17;;;;;;;6.60;3.20;;;;;;;;;;6188136;23;20119;-79
2023/06/06 06:49:43;;;;;;;5.35;3.00;;;;;;;;;;6185637;23;20009;-80
2023/06/06 06:52:15;;;;;;;4.43;2.70;;;;;;;;;;6188165;23;20011;-79
2023/06/06 06:54:57;;;;;;;4.78;3.35;;;20.70;80.90;;;;;;6185639;23;20084;-80
2023/06/06 06:57:26;;;;;;;5.38;3.00;;;20.70;81.20;;;;;;6169305;23;20280;-80
2023/06/06 06:59:54;;;;;;;5.80;3.33;;;20.60;81.30;;;;;;6186334;23;20296;-79
2023/06/06 07:02:21;;;;;;;5.00;3.28;;;;;;;;;;6189861;23;20016;-82
2023/06/06 07:04:47;;;;;;;7.97;3.28;;;20.90;80.10;;;;;;6213965;23;20054;-80
2023/06/06 07:07:17;;;;;;;7.07;3.15;;;;;;;;;;6217401;23;20039;-80
2023/06/06 07:09:43;;;;;;;6.57;2.80;;;;;;;;;;6218784;23;20078;-83
2023/06/06 07:12:10;;;;;;;5.50;2.63;;;21.10;80.20;;;;;;6219556;23;20244;-82
2023/06/06 07:14:36;;;;;;;5.25;3.00;;;;;;;;;;6169065;23;20008;-82
2023/06/06 07:17:03;;;;;;;4.03;2.78;;;20.90;80.30;;;;;;6217728;23;20009;-82
2023/06/06 07:19:29;;;;;;;5.65;2.95;;;;;;;;;;6165238;23;20034;-78
2023/06/06 07:21:56;;;;;;;4.93;2.75;;;20.80;80.80;;;;;;6186482;23;20066;-83
2023/06/06 07:24:22;;;;;;;5.72;3.28;;;;;;;;;;6187747;23;20019;-81
2023/06/06 07:26:51;;;;;;;4.53;2.90;;;20.50;82.40;;;;;;6190268;23;20012;-80
2023/06/06 07:29:17;;;;;;;5.13;3.60;;;20.40;82.30;;;;;;6190755;23;20001;-80
2023/06/06 07:31:43;;;;;;;7.07;3.05;;;;;;;;;;6186199;23;20432;-79
2023/06/06 07:34:10;;;;;;;5.00;3.50;;;;;;;;;;6187359;23;20397;-81
2023/06/06 07:36:36;;;;;;;6.63;3.20;;;;;;;;;;6190916;23;20005;-81
2023/06/06 07:39:02;;;;;;;5.32;2.90;;;;;;;;;;6191628;23;20456;-82
2023/06/06 07:41:33;;;;;;;6.45;3.15;;;;;;;;;;6204666;23;19996;-82
2023/06/06 07:43:59;;;;;;;6.03;3.50;;;;;;;;;;6211201;23;20001;-88
2023/06/06 07:46:25;;;;;;;7.78;3.10;;;;;;;;;;6237479;23;20014;-82
2023/06/06 07:48:51;;;;;;;5.13;3.08;;;21.70;80.70;;;;;;6237247;23;20009;-84
2023/06/06 07:51:18;;;;;;;6.15;3.00;;;;;;;;;;6235694;23;20000;-83
2023/06/06 07:53:44;;;;;;;5.53;3.10;;;;;;;;;;6236217;23;20004;-84
2023/06/06 07:56:13;;;;;;;10.23;3.38;;;;;;;;;;6211095;23;20001;-84
2023/06/06 07:58:43;;;;;;;5.38;2.90;;;;;;;;;;6203358;23;20009;-83
2023/06/06 08:01:12;;;;;;;7.05;2.85;;;;;;;;;;6157172;23;20010;-79
2023/06/06 08:03:38;;;;;;;6.95;2.90;;;;;;;;;;6163726;23;20080;-79
2023/06/06 08:06:05;;;;;;;4.03;2.55;;;;;;;;;;6177926;23;19990;-81
2023/06/06 08:08:31;;;;;;;5.45;2.97;;;;;;;;;;6178975;23;20061;-79
2023/06/06 08:10:57;;;;;;;4.80;2.42;;;;;;;;;;6148104;23;20009;-80
2023/06/06 08:13:23;;;;;;;4.93;2.60;;;;;;;;;;6151420;23;19993;-82
2023/06/06 08:15:49;;;;;;;6.68;2.70;;;;;;;;;;6154250;23;20076;-80
2023/06/06 08:18:16;;;;;;;5.43;2.88;;;;;;;;;;6174679;23;20215;-81
2023/06/06 08:20:42;;;;;;;4.20;2.65;;;;;;;;;;6175953;23;20009;-83
2023/06/06 08:23:08;;;;;;;6.07;3.60;;;;;;;;;;6154177;23;19989;-85
2023/06/06 08:25:34;;;;;;;4.65;3.00;;;;;;;;;;6179521;23;20041;-80
2023/06/06 08:28:00;;;;;;;4.57;3.10;;;;;;;;;;6179963;23;19994;-83
2023/06/06 08:30:26;;;;;;;4.93;2.97;;;;;;;;;;6153661;23;20077;-82
2023/06/06 08:32:52;;;;;;;4.82;3.00;;;;;;;;;;6155628;23;20036;-82
2023/06/06 08:35:22;;;;;;;5.22;2.92;;;;;;;;;;6180801;23;19994;-83
2023/06/06 08:37:52;;;;;;;5.88;3.58;;;;;;;;;;6155475;23;19998;-81
2023/06/06 08:40:17;;;;;;;;;;;21.80;78.50;;;;;;6177877;23;20013;-79
2023/06/06 08:42:48;;;;;;;4.13;2.85;;;22.10;78.50;;;;;;6179779;23;19896;-81
2023/06/06 08:45:14;;;;;;;4.88;2.67;;;;;;;;;;6154707;23;20051;-81
2023/06/06 08:47:44;;;;;;;4.63;2.80;;;;;;;;;;6180673;23;20010;-80
2023/06/06 08:50:10;;;;;;;11.60;3.10;;;;;;;;;;6150726;23;19998;-79
2023/06/06 08:52:36;;;;;;;4.90;2.58;;;;;;;;;;6178974;23;20017;-81
2023/06/06 08:55:03;;;;;;;5.00;2.38;;;;;;;;;;6180164;23;20201;-82
2023/06/06 08:57:29;;;;;;;3.92;2.33;;;;;;;;;;6154887;23;20008;-82
2023/06/06 08:59:55;;;;;;;7.80;2.50;;;;;;;;;;6153643;23;20005;-81
2023/06/06 09:02:22;;;;;;;7.10;2.63;;;;;;;;;;6153512;23;20012;-81
2023/06/06 09:04:48;;;;;;;4.30;2.67;;;;;;;;;;6130992;23;20037;-80
2023/06/06 09:07:15;;;;;;;5.38;2.30;;;24.20;69.10;;;;;;6177389;23;20021;-79
2023/06/06 09:09:45;;;;;;;5.25;2.90;;;;;;;;;;6177632;23;20089;-81
2023/06/06 09:12:11;;;;;;;3.67;2.40;;;;;;;;;;6150171;23;20005;-82
2023/06/06 09:14:37;;;;;;;3.90;2.67;;;;;;;;;;6152190;23;20005;-80
2023/06/06 09:17:03;;;;;;;9.70;3.03;;;;;;;;;;6179075;23;19994;-80
2023/06/06 09:19:31;;;;;;;4.05;2.67;;;;;;;;;;6155137;23;19990;-81
2023/06/06 09:22:00;;;;;;;4.43;2.38;;;;;;;;;;6178040;23;20001;-81
2023/06/06 09:24:27;;;;;;;4.50;2.53;;;;;;;;;;6179245;23;20020;-80
2023/06/06 09:26:53;;;;;;;4.00;2.58;;;;;;;;;;6180195;23;20001;-81
2023/06/06 09:29:19;;;;;;;4.05;2.45;;;;;;;;;;6180122;23;19985;-80
2023/06/06 09:31:48;;;;;;;8.90;3.00;;;;;;;;;;6152788;23;19998;-81
2023/06/06 09:34:15;;;;;;;7.03;3.05;;;;;;;;;;6153842;23;19990;-83
2023/06/06 09:36:41;;;;;;;5.15;2.90;;;;;;;;;;6179890;23;20000;-80
2023/06/06 09:39:12;;;;;;;4.65;2.80;;;;;;;;;;6178781;23;20008;-81
2023/06/06 09:41:41;;;;;;;7.43;2.95;;;;;;;;;;6154558;23;19993;-81
2023/06/06 09:44:30;;;;;;;3.30;2.50;;;;;;;;;;6154778;23;20028;-80
2023/06/06 09:47:00;;;;;;;4.35;3.05;;;;;;;;;;6177654;23;20293;-80
2023/06/06 09:49:31;;;;;;;4.25;2.88;;;;;;;;;;6147468;23;20066;-81
2023/06/06 09:51:57;;;;;;;4.95;2.80;;;;;;;;;;6177182;23;20009;-80
2023/06/06 09:54:23;;;;;;;8.18;3.10;;;;;;;;;;6179213;23;19997;-81
2023/06/06 09:56:50;;;;;;;5.18;2.85;;;;;;;;;;6178129;23;20057;-80
2023/06/06 09:59:16;;;;;;;5.05;3.00;;;;;;;;;;6152854;23;20017;-80
2023/06/06 10:01:43;;;;;;;8.75;2.92;;;;;;;;;;6167250;23;20029;-80
2023/06/06 10:04:09;;;;;;;6.15;2.70;;;;;;;;;;6169690;23;20025;-80
2023/06/06 10:06:39;;;;;;;9.85;3.05;;;;;;;;;;6173808;23;20032;-79
2023/06/06 10:09:06;;;;;;;6.75;2.67;;;;;;;;;;6150982;23;20004;-79
2023/06/06 10:11:35;;;;;;;5.75;2.85;;;;;;;;;;6178539;23;20012;-80
2023/06/06 10:14:02;;;;;;;6.00;2.70;;;;;;;;;;6180293;23;20033;-81
2023/06/06 10:16:30;;;;;;;3.80;2.70;;;;;;;;;;6152699;23;19998;-81
2023/06/06 10:18:57;;;;;;;5.88;2.90;;;;;;;;;;6177197;23;20001;-81
2023/06/06 10:21:24;;;;;;;3.92;2.70;;;;;;;;;;6177662;23;19989;-81
2023/06/06 10:23:51;;;;;;;4.30;3.00;;;;;;;;;;6176785;23;20000;-81
2023/06/06 10:26:24;;;;;;;5.18;2.70;;;;;;;;;;6176970;23;19996;-81
2023/06/06 10:29:21;;;;;;;5.85;2.90;;;25.80;61.80;;;;;;6177702;23;20006;-82
2023/06/06 10:31:53;;;;;;;9.63;3.28;;;;;;;;;;6176819;23;20025;-81
2023/06/06 10:34:33;;;;;;;7.82;2.85;;;25.80;60.90;;;;;;6180470;23;20016;-82
2023/06/06 10:37:13;;;;;;;6.50;3.03;;;;;;;;;;6156086;23;19992;-82
2023/06/06 10:39:41;;;;;;;5.38;2.83;;;;;;;;;;6180145;23;19990;-81
2023/06/06 10:42:08;;;;;;;4.05;2.40;;;;;;;;;;6177292;23;20002;-82
2023/06/06 10:44:46;;;;;;;3.58;2.80;;;;;;;;;;6180819;23;20009;-81
2023/06/06 10:47:21;;;;;;;6.65;3.15;;;;;;;;;;6179394;23;19997;-82
2023/06/06 10:50:11;;;;;;;5.90;2.78;;;;;;;;;;6153262;23;20009;-81
2023/06/06 10:53:06;;;;;;;7.00;2.80;;;;;;;;;;6162960;23;20028;-80
2023/06/06 10:55:33;;;;;;;5.15;2.90;;;;;;;;;;6153314;23;20001;-82
2023/06/06 10:58:25;;;;;;;3.60;2.90;;;;;;;;;;6153310;23;20006;-81
2023/06/06 11:00:56;;;;;;;7.30;2.97;;;;;;;;;;6154868;23;19997;-81
2023/06/06 11:03:48;;;;;;;4.00;2.78;;;;;;;;;;6178739;23;20006;-80
2023/06/06 11:06:16;;;;;;;5.35;2.72;;;;;;;;;;6178324;23;19993;-80
2023/06/06 11:08:56;;;;;;;4.50;2.67;;;;;;;;;;6179263;23;20028;-80
2023/06/06 11:11:29;;;;;;;5.45;3.05;;;;;;;;;;6152864;23;20010;-79
2023/06/06 11:13:56;;;;;;;6.45;2.90;;;;;;;;;;6153582;23;19989;-81
2023/06/06 11:16:51;;;;;;;4.38;2.60;;;;;;;;;;6155415;23;19993;-81
2023/06/06 11:19:19;;;;;;;5.82;2.80;;;;;;;;;;6177533;23;19997;-80
2023/06/06 11:21:49;;;;;;;4.55;3.00;;;;;;;;;;6154978;23;20014;-81
2023/06/06 11:24:17;;;;;;;5.50;2.90;;;;;;;;;;6181838;23;19985;-79
2023/06/06 11:26:43;;;;;;;7.32;3.30;;;;;;;;;;6183199;23;19997;-81
2023/06/06 11:29:10;;;;;;;7.00;2.95;;;;;;;;;;6182096;23;20006;-81
2023/06/06 11:31:37;;;;;;;6.25;2.95;;;;;;;;;;6180021;23;20009;-80
2023/06/06 11:34:09;;;;;;;5.70;2.70;;;;;;;;;;6151431;23;20015;-79
2023/06/06 11:36:36;;;;;;;5.38;2.78;;;;;;;;;;6180010;23;20057;-81
2023/06/06 11:39:04;;;;;;;5.38;3.05;;;;;;;;;;6180993;23;19994;-80
2023/06/06 11:41:31;;;;;;;6.32;3.35;;;;;;;;;;6179548;23;19994;-81
2023/06/06 11:43:57;;;;;;;6.70;3.13;;;;;;;;;;6181789;23;20009;-79
2023/06/06 11:46:23;;;;;;;5.75;3.03;;;;;;;;;;6180321;23;19985;-81
2023/06/06 11:48:59;;;;;;;3.35;2.63;;;;;;;;;;6177639;23;19986;-82
2023/06/06 11:51:25;;;;;;;5.07;2.75;;;;;;;;;;6180623;23;20037;-80
2023/06/06 11:53:51;;;;;;;4.40;2.85;;;;;;;;;;6155279;23;20014;-81
2023/06/06 11:56:19;;;;;;;4.43;2.88;;;;;;;;;;6154647;23;20010;-80
2023/06/06 11:58:45;;;;;;;4.25;2.85;;;;;;;;;;6177789;23;20024;-80
2023/06/06 12:01:15;;;;;;;5.55;3.30;;;;;;;;;;6178002;23;20028;-83
2023/06/06 12:03:42;;;;;;;8.02;3.00;;;;;;;;;;6176372;23;20012;-80
2023/06/06 12:06:09;;;;;;;5.10;3.17;;;;;;;;;;6174216;23;20014;-79
2023/06/06 12:08:36;;;;;;;6.47;3.00;;;;;;;;;;6169495;23;20011;-79
2023/06/06 12:11:23;;;;;;;5.00;3.20;;;;;;;;;;6166689;23;20079;-79
2023/06/06 12:13:52;;;;;;;4.88;2.80;;;;;;;;;;6163512;23;20006;-80
2023/06/06 12:16:23;;;;;;;4.53;2.92;;;;;;;;;;6166256;23;19993;-79
2023/06/06 12:18:50;;;;;;;4.78;3.20;;;;;;;;;;6164205;23;20002;-79
2023/06/06 12:21:18;;;;;;;4.40;2.83;;;;;;;;;;6163679;23;20037;-78
2023/06/06 12:23:44;;;;;;;6.00;3.15;;;;;;;;;;6162783;23;20006;-79
2023/06/06 12:26:11;;;;;;;5.22;3.35;;;;;;;;;;6165518;23;20060;-79
2023/06/06 12:28:57;;;;;;;5.60;3.70;;;;;;;;;;6163270;23;20012;-80
2023/06/06 12:31:25;;;;;;;4.75;3.42;;;;;;;;;;6166076;23;20010;-80
2023/06/06 12:33:57;;;;;;;4.72;3.10;;;;;;;;;;6168765;23;20211;-80
2023/06/06 12:36:25;;;;;;;5.22;3.20;;;;;;;;;;6169652;23;20008;-81
2023/06/06 12:38:55;;;;;;;3.95;2.80;;;;;;;;;;6169240;23;20001;-78
2023/06/06 12:41:21;;;;;;;;;;;26.50;59.90;;;;;;6169345;23;20009;-79
2023/06/06 12:43:48;;;;;;;8.30;3.90;;;;;;;;;;6167849;23;19907;-79
2023/06/06 12:46:14;;;;;;;4.97;3.20;;;;;;;;;;6164823;23;20013;-79
2023/06/06 12:48:41;;;;;;;6.78;3.63;;;;;;;;;;6166054;23;20033;-79
2023/06/06 12:51:13;;;;;;;6.05;3.20;;;;;;;;;;6143540;23;20472;-81
2023/06/06 12:53:41;;;;;;;6.10;3.25;;;;;;;;;;6168993;23;20056;-80
2023/06/06 12:56:10;;;;;;;6.53;3.38;;;;;;;;;;6168980;23;20002;-80
2023/06/06 12:58:37;;;;;;;8.45;4.35;;;;;;;;;;6169849;23;20065;-80
2023/06/06 13:01:06;;;;;;;4.80;3.28;;;;;;;;;;6167680;23;20013;-80
2023/06/06 13:03:33;;;;;;;5.57;3.10;;;;;;;;;;6169934;23;20008;-80
2023/06/06 13:06:03;;;;;;;5.03;3.30;;;;;;;;;;6144407;23;20020;-79
2023/06/06 13:08:45;;;;;;;4.18;2.90;;;;;;;;;;6170279;23;20001;-79
2023/06/06 13:11:12;;;;;;;5.40;3.13;;;;;;;;;;6170185;23;20041;-80
2023/06/06 13:13:38;;;;;;;4.07;3.05;;;;;;;;;;6169878;23;20020;-81
2023/06/06 13:16:05;;;;;;;8.32;4.03;;;;;;;;;;6169975;23;20002;-80
2023/06/06 13:21:45;;;;;;;6.60;3.35;;;;;;;;;;6160056;23;20016;-80
2023/06/06 13:24:17;;;;;;;6.70;3.17;;;27.40;57.90;;;;;;6161802;23;20009;-80
2023/06/06 13:26:48;;;;;;;5.65;3.40;;;;;;;;;;6161041;23;20009;-79
2023/06/06 13:29:15;;;;;;;6.65;3.20;;;;;;;;;;6159592;23;20002;-81
2023/06/06 13:31:52;;;;;;;5.18;3.45;;;;;;;;;;6160792;23;20018;-80
2023/06/06 13:34:25;;;;;;;4.00;3.00;;;;;;;;;;6129353;23;20001;-80
2023/06/06 13:37:16;;;;;;;5.78;3.10;;;;;;;;;;6158406;23;20009;-80
2023/06/06 13:39:47;;;;;;;4.70;3.25;;;;;;;;;;6159920;23;20021;-80
2023/06/06 13:42:16;;;;;;;7.50;3.53;;;;;;;;;;6160350;23;20465;-80
2023/06/06 13:45:01;;;;;;;6.10;3.33;;;;;;;;;;6133612;23;20005;-80
2023/06/06 13:47:52;;;;;;;4.82;3.10;;;28.20;56.90;;;;;;6152816;23;20008;-80
2023/06/06 13:50:27;;;;;;;6.40;3.20;;;;;;;;;;6155587;23;20081;-80
2023/06/06 13:59:32;;;;;;;5.38;3.05;;;;;;;;;;6163517;23;20538;-81
2023/06/06 14:02:20;;;;;;;6.97;3.30;;;;;;;;;;6163953;23;20115;-80
2023/06/06 14:04:47;;;;;;;3.95;2.83;;;;;;;;;;6155431;23;20008;-81
2023/06/06 14:07:14;;;;;;;5.25;3.00;;;;;;;;;;6161896;23;20013;-80
2023/06/06 14:09:40;;;;;;;6.13;3.38;;;;;;;;;;6137702;23;20048;-81
2023/06/06 14:12:10;;;;;;;6.10;3.22;;;;;;;;;;6162777;23;20021;-80
2023/06/06 14:14:37;;;;;;;;;;;26.80;58.90;;;;;;6163326;23;20040;-79
2023/06/06 14:17:05;;;;;;;7.15;3.40;;;;;;;;;;6163187;23;20344;-80
2023/06/06 14:19:38;;;;;;;4.40;3.03;;;;;;;;;;6163572;23;20008;-79